Monday, December 18, 2017, 9:23 AM EST
Back to Local

KAFN, Jaffrey Muni-silver Ranch

Location: Jaffrey, NH, United States Lat: 42.8
Local Time: 9:23 AM EST (14:23 GMT) Lon: -72
Time Zone: US/Eastern Elev: 1040 ft

Show me the last for .
Show Decoded

2017-12-18 08:52 METAR KAFN 181352Z AUTO 18003KT 10SM OVC013 M06/M09 A3009 RMK AO2 SLP212
                 T10611089 =
2017-12-18 08:09 METAR KAFN 181309Z AUTO 00000KT 10SM OVC014 M07/M09 A3009 RMK AO2 T10671094 =
2017-12-18 07:52 METAR KAFN 181252Z AUTO 00000KT 10SM OVC015 M07/M09 A3010 RMK AO2 SLP217
                 T10671094 =
2017-12-18 06:52 METAR KAFN 181152Z AUTO 00000KT 10SM OVC016 M07/M09 A3010 RMK AO2 SLP219 60000
                 T10721094 11072 21111 56008 =
2017-12-18 06:08 METAR KAFN 181108Z AUTO 00000KT 10SM BKN018 OVC048 M07/M10 A3011 RMK AO2
                 T10721100 =
2017-12-18 05:52 METAR KAFN 181052Z AUTO 00000KT 10SM FEW018 BKN047 OVC055 M08/M09 A3010 RMK AO2
                 SNE40 SLP219 P0000 T10781094 =
2017-12-18 05:35 METAR KAFN 181035Z AUTO 00000KT 7SM -SN SCT029 BKN043 OVC055 M08/M09 A3011 RMK
                 AO2 P0000 T10781094 =
2017-12-18 05:21 METAR KAFN 181021Z AUTO 00000KT 3SM -SN BR BKN029 OVC044 M08/M10 A3011 RMK AO2
                 P0000 T10781100 =
2017-12-18 05:06 METAR KAFN 181006Z AUTO 00000KT 2 1/2SM -SN BR OVC032 M08/M10 A3011 RMK AO2
                 P0000 T10781100 =
2017-12-18 04:52 METAR KAFN 180952Z AUTO 00000KT 4SM -SN BR OVC036 M08/M11 A3011 RMK AO2 SNB0855
                 SLP217 P0000 T10831106 =
2017-12-18 04:26 METAR KAFN 180926Z AUTO 00000KT 3SM -SN OVC031 M08/M12 A3011 RMK AO2 SNB0855
                 P0000 T10781117 =
2017-12-18 04:20 METAR KAFN 180920Z AUTO 00000KT 2 1/2SM -SN OVC029 M08/M12 A3012 RMK AO2 SNB0855
                 P0000 T10781117 =
2017-12-18 03:52 METAR KAFN 180852Z AUTO 00000KT 10SM SCT026 OVC039 M08/M12 A3013 RMK AO2 SLP225
                 T10781122 58009 =
2017-12-18 03:15 METAR KAFN 180815Z AUTO 00000KT 10SM BKN026 BKN047 OVC070 M08/M12 A3015 RMK AO2
                 T10831122 =
2017-12-18 02:52 METAR KAFN 180752Z AUTO 17003KT 10SM BKN047 OVC070 M09/M12 A3014 RMK AO2 SLP231
                 T10891122 =
2017-12-18 01:52 METAR KAFN 180652Z AUTO 00000KT 10SM CLR M11/M13 A3015 RMK AO2 SLP234 T11061128
                 =
2017-12-18 00:52 METAR KAFN 180552Z AUTO 00000KT 10SM CLR M11/M13 A3016 RMK AO2 SLP236 T11111133
                 11089 21133 56014 =
2017-12-17 23:52 METAR KAFN 180452Z AUTO 00000KT 10SM CLR M12/M14 A3017 RMK AO2 SLP241 T11221144
                 410391189 =
2017-12-17 22:52 METAR KAFN 180352Z AUTO 17003KT 10SM CLR M12/M14 A3018 RMK AO2 SLP245 T11221144
                 =
2017-12-17 21:52 METAR KAFN 180252Z AUTO 00000KT 10SM CLR M11/M13 A3020 RMK AO2 SLP252 T11111133
                 50003 =
2017-12-17 20:52 METAR KAFN 180152Z AUTO 00000KT 10SM CLR M09/M13 A3021 RMK AO2 SLP257 T10891133
                 =
2017-12-17 19:52 METAR KAFN 180052Z AUTO 00000KT 10SM CLR M10/M14 A3021 RMK AO2 SLP260 T11001139
                 =
2017-12-17 18:52 METAR KAFN 172352Z AUTO 00000KT 10SM CLR M10/M14 A3019 RMK AO2 SLP252 T11001139
                 11039 21100 53004 =
2017-12-17 17:52 METAR KAFN 172252Z AUTO 00000KT 10SM CLR M09/M14 A3018 RMK AO2 SLP251 T10891139
                 =
2017-12-17 16:52 METAR KAFN 172152Z AUTO 00000KT 10SM CLR M07/M14 A3018 RMK AO2 SLP247 T10671144
                 =
2017-12-17 15:52 METAR KAFN 172052Z AUTO 00000KT 10SM CLR M06/M14 A3018 RMK AO2 SLP246 T10561144
                 53001 =
2017-12-17 14:52 METAR KAFN 171952Z AUTO 00000KT 10SM CLR M04/M16 A3015 RMK AO2 SLP236 T10441156
                 =
2017-12-17 13:52 METAR KAFN 171852Z AUTO 26010KT 10SM CLR M04/M15 A3016 RMK AO2 SLP240 T10441150
                 =
2017-12-17 12:52 METAR KAFN 171752Z AUTO 27008KT 10SM CLR M04/M16 A3017 RMK AO2 SLP244 T10441156
                 11044 21183 58015 =
2017-12-17 11:52 METAR KAFN 171652Z AUTO 27011G15KT 10SM CLR M06/M15 A3020 RMK AO2 SLP252
                 T10561150 =
2017-12-17 10:52 METAR KAFN 171552Z AUTO 30007KT 10SM CLR M06/M15 A3021 RMK AO2 SLP253 T10561150
                 =
2017-12-17 09:52 METAR KAFN 171452Z AUTO 00000KT 10SM CLR M08/M12 A3022 RMK AO2 SLP258 T10781117
                 51012 =

Support USWX by starting your Amazon purchase here.